sensor_id;sensor_type;location;lat;lon;timestamp;temperature;humidity
47773;DHT22;33534;51.028;13.716;2022-08-19T00:02:12;23.10;73.20
47773;DHT22;33534;51.028;13.716;2022-08-19T00:04:37;23.00;73.40
47773;DHT22;33534;51.028;13.716;2022-08-19T00:07:04;23.00;73.70
47773;DHT22;33534;51.028;13.716;2022-08-19T00:29:08;22.70;75.30
47773;DHT22;33534;51.028;13.716;2022-08-19T00:31:34;22.70;75.50
47773;DHT22;33534;51.028;13.716;2022-08-19T00:33:59;22.70;75.40
47773;DHT22;33534;51.028;13.716;2022-08-19T00:36:25;22.90;74.90
47773;DHT22;33534;51.028;13.716;2022-08-19T00:38:51;22.90;74.90
47773;DHT22;33534;51.028;13.716;2022-08-19T00:41:20;23.00;74.50
47773;DHT22;33534;51.028;13.716;2022-08-19T00:44:14;23.00;74.50
47773;DHT22;33534;51.028;13.716;2022-08-19T00:46:42;22.90;74.90
47773;DHT22;33534;51.028;13.716;2022-08-19T00:49:16;22.80;75.40
47773;DHT22;33534;51.028;13.716;2022-08-19T00:51:45;22.80;75.20
47773;DHT22;33534;51.028;13.716;2022-08-19T00:54:11;22.90;75.00
47773;DHT22;33534;51.028;13.716;2022-08-19T00:56:37;22.80;75.60
47773;DHT22;33534;51.028;13.716;2022-08-19T00:59:04;22.80;76.30
47773;DHT22;33534;51.028;13.716;2022-08-19T01:01:37;22.90;75.80
47773;DHT22;33534;51.028;13.716;2022-08-19T01:04:04;22.90;75.80
47773;DHT22;33534;51.028;13.716;2022-08-19T01:06:30;22.90;76.00
47773;DHT22;33534;51.028;13.716;2022-08-19T01:08:58;22.80;76.30
47773;DHT22;33534;51.028;13.716;2022-08-19T01:11:26;22.80;76.30
47773;DHT22;33534;51.028;13.716;2022-08-19T01:13:53;22.80;76.00
47773;DHT22;33534;51.028;13.716;2022-08-19T01:16:21;22.90;75.90
47773;DHT22;33534;51.028;13.716;2022-08-19T01:18:48;22.90;75.90
47773;DHT22;33534;51.028;13.716;2022-08-19T01:21:24;22.80;76.40
47773;DHT22;33534;51.028;13.716;2022-08-19T01:23:52;22.80;76.40
47773;DHT22;33534;51.028;13.716;2022-08-19T01:26:22;22.80;76.30
47773;DHT22;33534;51.028;13.716;2022-08-19T01:28:50;22.90;76.10
47773;DHT22;33534;51.028;13.716;2022-08-19T01:31:20;23.00;75.80
47773;DHT22;33534;51.028;13.716;2022-08-19T01:33:48;23.10;75.20
47773;DHT22;33534;51.028;13.716;2022-08-19T01:36:21;23.10;75.20
47773;DHT22;33534;51.028;13.716;2022-08-19T01:38:47;23.20;75.10
47773;DHT22;33534;51.028;13.716;2022-08-19T01:41:13;23.20;75.30
47773;DHT22;33534;51.028;13.716;2022-08-19T01:43:40;23.10;75.30
47773;DHT22;33534;51.028;13.716;2022-08-19T01:46:06;23.10;75.50
47773;DHT22;33534;51.028;13.716;2022-08-19T01:48:37;23.00;75.60
47773;DHT22;33534;51.028;13.716;2022-08-19T01:51:04;23.10;75.50
47773;DHT22;33534;51.028;13.716;2022-08-19T01:53:30;23.20;75.30
47773;DHT22;33534;51.028;13.716;2022-08-19T01:55:56;23.20;75.20
47773;DHT22;33534;51.028;13.716;2022-08-19T01:58:26;23.20;75.30
47773;DHT22;33534;51.028;13.716;2022-08-19T02:00:54;23.20;75.30
47773;DHT22;33534;51.028;13.716;2022-08-19T02:03:20;23.20;75.50
47773;DHT22;33534;51.028;13.716;2022-08-19T02:05:45;23.20;75.70
47773;DHT22;33534;51.028;13.716;2022-08-19T02:08:11;23.20;75.40
47773;DHT22;33534;51.028;13.716;2022-08-19T02:10:42;23.20;75.60
47773;DHT22;33534;51.028;13.716;2022-08-19T02:13:09;23.20;75.70
47773;DHT22;33534;51.028;13.716;2022-08-19T02:15:35;23.20;75.40
47773;DHT22;33534;51.028;13.716;2022-08-19T02:18:01;23.30;75.30
47773;DHT22;33534;51.028;13.716;2022-08-19T02:20:27;23.20;75.80
47773;DHT22;33534;51.028;13.716;2022-08-19T02:22:52;23.20;75.80
47773;DHT22;33534;51.028;13.716;2022-08-19T02:25:18;23.20;75.90
47773;DHT22;33534;51.028;13.716;2022-08-19T02:27:43;23.00;76.30
47773;DHT22;33534;51.028;13.716;2022-08-19T02:30:13;23.10;76.10
47773;DHT22;33534;51.028;13.716;2022-08-19T02:32:39;23.20;75.80
47773;DHT22;33534;51.028;13.716;2022-08-19T02:35:05;23.20;76.10
47773;DHT22;33534;51.028;13.716;2022-08-19T02:37:31;23.10;76.20
47773;DHT22;33534;51.028;13.716;2022-08-19T02:40:15;23.00;76.50
47773;DHT22;33534;51.028;13.716;2022-08-19T02:42:43;23.00;76.70
47773;DHT22;33534;51.028;13.716;2022-08-19T02:45:09;23.00;76.90
47773;DHT22;33534;51.028;13.716;2022-08-19T02:47:35;22.90;77.00
47773;DHT22;33534;51.028;13.716;2022-08-19T02:50:01;22.90;77.10
47773;DHT22;33534;51.028;13.716;2022-08-19T02:52:27;23.00;77.00
47773;DHT22;33534;51.028;13.716;2022-08-19T02:54:53;22.90;77.40
47773;DHT22;33534;51.028;13.716;2022-08-19T02:57:20;22.90;77.30
47773;DHT22;33534;51.028;13.716;2022-08-19T02:59:46;22.90;77.20
47773;DHT22;33534;51.028;13.716;2022-08-19T03:02:12;22.90;77.10
47773;DHT22;33534;51.028;13.716;2022-08-19T03:04:37;23.00;76.90
47773;DHT22;33534;51.028;13.716;2022-08-19T03:07:03;23.00;77.00
47773;DHT22;33534;51.028;13.716;2022-08-19T03:09:29;23.00;76.90
47773;DHT22;33534;51.028;13.716;2022-08-19T03:11:55;23.10;76.60
47773;DHT22;33534;51.028;13.716;2022-08-19T03:14:21;23.00;76.80
47773;DHT22;33534;51.028;13.716;2022-08-19T03:16:52;23.00;76.80
47773;DHT22;33534;51.028;13.716;2022-08-19T03:19:19;23.00;76.80
47773;DHT22;33534;51.028;13.716;2022-08-19T03:21:46;23.00;76.90
47773;DHT22;33534;51.028;13.716;2022-08-19T03:24:13;23.00;77.00
47773;DHT22;33534;51.028;13.716;2022-08-19T03:26:41;23.00;77.10
47773;DHT22;33534;51.028;13.716;2022-08-19T03:29:08;22.90;77.50
47773;DHT22;33534;51.028;13.716;2022-08-19T03:31:35;22.90;77.50
47773;DHT22;33534;51.028;13.716;2022-08-19T03:34:01;22.90;77.20
47773;DHT22;33534;51.028;13.716;2022-08-19T03:36:27;22.90;77.30
47773;DHT22;33534;51.028;13.716;2022-08-19T03:38:56;23.00;77.40
47773;DHT22;33534;51.028;13.716;2022-08-19T03:41:25;22.90;77.40
47773;DHT22;33534;51.028;13.716;2022-08-19T03:43:52;22.90;77.50
47773;DHT22;33534;51.028;13.716;2022-08-19T03:46:23;22.90;77.60
47773;DHT22;33534;51.028;13.716;2022-08-19T03:48:50;22.80;77.90
47773;DHT22;33534;51.028;13.716;2022-08-19T03:51:28;22.80;77.80
47773;DHT22;33534;51.028;13.716;2022-08-19T03:53:58;22.80;77.90
47773;DHT22;33534;51.028;13.716;2022-08-19T03:56:25;22.80;77.90
47773;DHT22;33534;51.028;13.716;2022-08-19T03:58:51;22.80;77.80
47773;DHT22;33534;51.028;13.716;2022-08-19T04:01:21;22.80;77.90
47773;DHT22;33534;51.028;13.716;2022-08-19T04:03:48;22.70;78.00
47773;DHT22;33534;51.028;13.716;2022-08-19T04:08:41;22.80;77.90
47773;DHT22;33534;51.028;13.716;2022-08-19T04:11:09;22.70;78.00
47773;DHT22;33534;51.028;13.716;2022-08-19T04:13:35;22.70;77.80
47773;DHT22;33534;51.028;13.716;2022-08-19T04:16:01;22.80;77.60
47773;DHT22;33534;51.028;13.716;2022-08-19T04:18:27;22.80;77.50
47773;DHT22;33534;51.028;13.716;2022-08-19T04:20:55;22.80;77.60
47773;DHT22;33534;51.028;13.716;2022-08-19T04:23:20;22.90;77.50
47773;DHT22;33534;51.028;13.716;2022-08-19T04:25:46;22.80;77.50
47773;DHT22;33534;51.028;13.716;2022-08-19T04:28:12;22.80;77.70
47773;DHT22;33534;51.028;13.716;2022-08-19T04:30:46;22.80;77.80
47773;DHT22;33534;51.028;13.716;2022-08-19T04:33:14;22.70;78.30
47773;DHT22;33534;51.028;13.716;2022-08-19T04:35:43;22.70;78.10
47773;DHT22;33534;51.028;13.716;2022-08-19T04:38:10;22.70;77.90
47773;DHT22;33534;51.028;13.716;2022-08-19T04:40:44;22.70;77.90
47773;DHT22;33534;51.028;13.716;2022-08-19T04:43:29;22.80;77.80
47773;DHT22;33534;51.028;13.716;2022-08-19T04:45:55;22.70;77.90
47773;DHT22;33534;51.028;13.716;2022-08-19T04:48:21;22.70;78.00
47773;DHT22;33534;51.028;13.716;2022-08-19T04:50:56;22.70;78.10
47773;DHT22;33534;51.028;13.716;2022-08-19T04:53:26;22.70;78.00
47773;DHT22;33534;51.028;13.716;2022-08-19T04:56:05;22.70;78.00
47773;DHT22;33534;51.028;13.716;2022-08-19T04:58:35;22.70;78.00
47773;DHT22;33534;51.028;13.716;2022-08-19T05:01:01;22.70;78.00
47773;DHT22;33534;51.028;13.716;2022-08-19T05:03:26;22.70;77.80
47773;DHT22;33534;51.028;13.716;2022-08-19T05:05:53;22.70;77.80
47773;DHT22;33534;51.028;13.716;2022-08-19T05:08:20;22.70;78.00
47773;DHT22;33534;51.028;13.716;2022-08-19T05:10:48;22.50;78.50
47773;DHT22;33534;51.028;13.716;2022-08-19T05:13:16;22.50;78.80
47773;DHT22;33534;51.028;13.716;2022-08-19T05:15:42;22.40;79.10
47773;DHT22;33534;51.028;13.716;2022-08-19T05:18:08;22.40;79.20
47773;DHT22;33534;51.028;13.716;2022-08-19T05:20:53;22.40;79.30
47773;DHT22;33534;51.028;13.716;2022-08-19T05:23:37;22.40;79.40
47773;DHT22;33534;51.028;13.716;2022-08-19T05:26:03;22.40;79.30
47773;DHT22;33534;51.028;13.716;2022-08-19T05:28:29;22.40;79.40
47773;DHT22;33534;51.028;13.716;2022-08-19T05:30:55;22.40;79.40
47773;DHT22;33534;51.028;13.716;2022-08-19T05:33:21;22.40;79.40
47773;DHT22;33534;51.028;13.716;2022-08-19T05:35:47;22.30;79.40
47773;DHT22;33534;51.028;13.716;2022-08-19T05:38:15;22.30;79.40
47773;DHT22;33534;51.028;13.716;2022-08-19T05:40:41;22.30;79.60
47773;DHT22;33534;51.028;13.716;2022-08-19T05:43:08;22.30;79.60
47773;DHT22;33534;51.028;13.716;2022-08-19T05:45:40;22.30;79.60
47773;DHT22;33534;51.028;13.716;2022-08-19T05:48:05;22.20;79.70
47773;DHT22;33534;51.028;13.716;2022-08-19T05:50:31;22.20;79.80
47773;DHT22;33534;51.028;13.716;2022-08-19T05:52:57;22.20;79.90
47773;DHT22;33534;51.028;13.716;2022-08-19T05:55:22;22.10;80.10
47773;DHT22;33534;51.028;13.716;2022-08-19T05:57:49;22.20;80.00
47773;DHT22;33534;51.028;13.716;2022-08-19T06:00:14;22.10;79.80
47773;DHT22;33534;51.028;13.716;2022-08-19T06:02:40;22.10;79.90
47773;DHT22;33534;51.028;13.716;2022-08-19T06:05:08;22.10;79.80
47773;DHT22;33534;51.028;13.716;2022-08-19T06:07:35;22.20;79.80
47773;DHT22;33534;51.028;13.716;2022-08-19T06:10:00;22.10;80.10
47773;DHT22;33534;51.028;13.716;2022-08-19T06:12:30;22.10;80.30
47773;DHT22;33534;51.028;13.716;2022-08-19T06:15:00;22.10;80.10
47773;DHT22;33534;51.028;13.716;2022-08-19T06:17:28;22.20;79.80
47773;DHT22;33534;51.028;13.716;2022-08-19T06:19:55;22.20;79.60
47773;DHT22;33534;51.028;13.716;2022-08-19T06:22:20;22.20;79.30
47773;DHT22;33534;51.028;13.716;2022-08-19T06:24:46;22.20;79.20
47773;DHT22;33534;51.028;13.716;2022-08-19T06:27:12;22.20;79.00
47773;DHT22;33534;51.028;13.716;2022-08-19T06:29:37;22.30;79.00
47773;DHT22;33534;51.028;13.716;2022-08-19T06:32:03;22.30;78.90
47773;DHT22;33534;51.028;13.716;2022-08-19T06:34:32;22.30;78.70
47773;DHT22;33534;51.028;13.716;2022-08-19T06:37:00;22.30;78.70
47773;DHT22;33534;51.028;13.716;2022-08-19T06:39:36;22.20;78.90
47773;DHT22;33534;51.028;13.716;2022-08-19T06:42:04;22.20;79.00
47773;DHT22;33534;51.028;13.716;2022-08-19T06:44:34;22.30;79.20
47773;DHT22;33534;51.028;13.716;2022-08-19T06:47:06;22.30;78.90
47773;DHT22;33534;51.028;13.716;2022-08-19T06:49:32;22.30;79.10
47773;DHT22;33534;51.028;13.716;2022-08-19T06:51:58;22.30;78.80
47773;DHT22;33534;51.028;13.716;2022-08-19T06:54:25;22.40;78.80
47773;DHT22;33534;51.028;13.716;2022-08-19T06:56:51;22.40;78.70
47773;DHT22;33534;51.028;13.716;2022-08-19T06:59:20;22.40;78.90
47773;DHT22;33534;51.028;13.716;2022-08-19T07:01:51;22.50;78.90
47773;DHT22;33534;51.028;13.716;2022-08-19T07:04:22;22.40;79.30
47773;DHT22;33534;51.028;13.716;2022-08-19T07:06:49;22.40;79.40
47773;DHT22;33534;51.028;13.716;2022-08-19T07:09:17;22.40;80.00
47773;DHT22;33534;51.028;13.716;2022-08-19T07:11:45;22.40;79.90
47773;DHT22;33534;51.028;13.716;2022-08-19T07:14:11;22.30;80.10
47773;DHT22;33534;51.028;13.716;2022-08-19T07:16:37;22.40;80.50
47773;DHT22;33534;51.028;13.716;2022-08-19T07:19:03;22.40;80.70
47773;DHT22;33534;51.028;13.716;2022-08-19T07:21:29;22.40;81.00
47773;DHT22;33534;51.028;13.716;2022-08-19T07:23:56;22.40;81.00
47773;DHT22;33534;51.028;13.716;2022-08-19T07:26:28;22.40;81.60
47773;DHT22;33534;51.028;13.716;2022-08-19T07:28:55;22.40;81.50
47773;DHT22;33534;51.028;13.716;2022-08-19T07:31:23;22.30;81.40
47773;DHT22;33534;51.028;13.716;2022-08-19T07:33:52;22.20;82.30
47773;DHT22;33534;51.028;13.716;2022-08-19T07:36:22;22.20;82.10
47773;DHT22;33534;51.028;13.716;2022-08-19T07:38:49;22.10;82.10
47773;DHT22;33534;51.028;13.716;2022-08-19T07:41:20;22.30;82.20
47773;DHT22;33534;51.028;13.716;2022-08-19T07:43:47;22.20;82.30
47773;DHT22;33534;51.028;13.716;2022-08-19T07:46:13;22.10;83.30
47773;DHT22;33534;51.028;13.716;2022-08-19T07:48:41;22.00;83.40
47773;DHT22;33534;51.028;13.716;2022-08-19T07:51:08;22.00;83.40
47773;DHT22;33534;51.028;13.716;2022-08-19T07:53:35;21.90;84.10
47773;DHT22;33534;51.028;13.716;2022-08-19T07:56:00;22.00;84.60
47773;DHT22;33534;51.028;13.716;2022-08-19T07:58:28;22.00;84.50
47773;DHT22;33534;51.028;13.716;2022-08-19T08:00:54;22.00;84.60
47773;DHT22;33534;51.028;13.716;2022-08-19T08:03:22;22.10;83.90
47773;DHT22;33534;51.028;13.716;2022-08-19T08:06:08;22.30;83.50
47773;DHT22;33534;51.028;13.716;2022-08-19T08:08:52;22.20;83.40
47773;DHT22;33534;51.028;13.716;2022-08-19T08:11:40;22.30;83.20
47773;DHT22;33534;51.028;13.716;2022-08-19T08:14:07;22.30;83.30
47773;DHT22;33534;51.028;13.716;2022-08-19T08:16:36;22.50;82.40
47773;DHT22;33534;51.028;13.716;2022-08-19T08:19:04;22.40;82.30
47773;DHT22;33534;51.028;13.716;2022-08-19T08:21:31;22.50;82.20
47773;DHT22;33534;51.028;13.716;2022-08-19T08:23:57;22.50;82.00
47773;DHT22;33534;51.028;13.716;2022-08-19T08:26:23;22.60;81.60
47773;DHT22;33534;51.028;13.716;2022-08-19T08:28:50;22.70;81.50
47773;DHT22;33534;51.028;13.716;2022-08-19T08:31:16;22.70;80.80
47773;DHT22;33534;51.028;13.716;2022-08-19T08:33:44;22.80;81.10
47773;DHT22;33534;51.028;13.716;2022-08-19T08:36:11;22.90;80.90
47773;DHT22;33534;51.028;13.716;2022-08-19T08:38:37;22.90;80.70
47773;DHT22;33534;51.028;13.716;2022-08-19T08:41:18;22.80;80.70
47773;DHT22;33534;51.028;13.716;2022-08-19T08:43:49;22.80;80.70
47773;DHT22;33534;51.028;13.716;2022-08-19T08:48:52;22.70;81.00
47773;DHT22;33534;51.028;13.716;2022-08-19T08:51:22;22.70;81.80
47773;DHT22;33534;51.028;13.716;2022-08-19T08:53:50;22.60;82.50
47773;DHT22;33534;51.028;13.716;2022-08-19T08:56:16;22.60;82.50
47773;DHT22;33534;51.028;13.716;2022-08-19T08:58:59;22.60;82.00
47773;DHT22;33534;51.028;13.716;2022-08-19T09:01:25;22.90;81.20
47773;DHT22;33534;51.028;13.716;2022-08-19T09:03:51;23.10;79.90
47773;DHT22;33534;51.028;13.716;2022-08-19T09:16:50;24.70;74.10
47773;DHT22;33534;51.028;13.716;2022-08-19T09:19:17;25.20;73.10
47773;DHT22;33534;51.028;13.716;2022-08-19T09:21:43;25.50;70.50
47773;DHT22;33534;51.028;13.716;2022-08-19T09:24:08;25.70;70.40
47773;DHT22;33534;51.028;13.716;2022-08-19T09:26:34;25.80;69.20
47773;DHT22;33534;51.028;13.716;2022-08-19T09:29:00;26.10;68.20
47773;DHT22;33534;51.028;13.716;2022-08-19T09:31:28;26.20;67.90
47773;DHT22;33534;51.028;13.716;2022-08-19T09:33:55;26.30;66.60
47773;DHT22;33534;51.028;13.716;2022-08-19T09:36:25;26.30;66.60
47773;DHT22;33534;51.028;13.716;2022-08-19T09:38:52;26.40;66.30
47773;DHT22;33534;51.028;13.716;2022-08-19T09:41:20;26.50;65.20
47773;DHT22;33534;51.028;13.716;2022-08-19T09:43:47;26.20;66.20
47773;DHT22;33534;51.028;13.716;2022-08-19T09:46:14;26.10;66.40
47773;DHT22;33534;51.028;13.716;2022-08-19T09:48:42;25.90;67.10
47773;DHT22;33534;51.028;13.716;2022-08-19T09:51:15;25.70;67.90
47773;DHT22;33534;51.028;13.716;2022-08-19T09:53:45;25.70;67.80
47773;DHT22;33534;51.028;13.716;2022-08-19T09:56:12;25.60;67.80
47773;DHT22;33534;51.028;13.716;2022-08-19T09:58:38;25.70;67.70
47773;DHT22;33534;51.028;13.716;2022-08-19T10:01:05;25.90;67.40
47773;DHT22;33534;51.028;13.716;2022-08-19T10:03:33;26.00;67.20
47773;DHT22;33534;51.028;13.716;2022-08-19T10:06:03;26.20;66.20
47773;DHT22;33534;51.028;13.716;2022-08-19T10:08:32;26.30;66.10
47773;DHT22;33534;51.028;13.716;2022-08-19T10:10:59;26.30;65.70
47773;DHT22;33534;51.028;13.716;2022-08-19T10:13:28;26.30;65.70
47773;DHT22;33534;51.028;13.716;2022-08-19T10:16:01;26.40;65.40
47773;DHT22;33534;51.028;13.716;2022-08-19T10:18:27;26.30;65.50
47773;DHT22;33534;51.028;13.716;2022-08-19T10:21:09;26.30;65.20
47773;DHT22;33534;51.028;13.716;2022-08-19T10:23:37;26.40;65.30
47773;DHT22;33534;51.028;13.716;2022-08-19T10:26:05;26.80;64.00
47773;DHT22;33534;51.028;13.716;2022-08-19T10:28:35;27.00;63.10
47773;DHT22;33534;51.028;13.716;2022-08-19T10:31:06;27.40;62.40
47773;DHT22;33534;51.028;13.716;2022-08-19T10:33:32;27.80;60.80
47773;DHT22;33534;51.028;13.716;2022-08-19T10:36:07;28.10;59.40
47773;DHT22;33534;51.028;13.716;2022-08-19T10:38:33;28.20;58.30
47773;DHT22;33534;51.028;13.716;2022-08-19T10:41:10;27.90;59.40
47773;DHT22;33534;51.028;13.716;2022-08-19T10:43:36;27.60;60.20
47773;DHT22;33534;51.028;13.716;2022-08-19T10:46:05;27.10;61.90
47773;DHT22;33534;51.028;13.716;2022-08-19T10:48:32;26.50;64.20
47773;DHT22;33534;51.028;13.716;2022-08-19T10:50:58;26.40;64.60
47773;DHT22;33534;51.028;13.716;2022-08-19T10:54:03;26.60;63.70
47773;DHT22;33534;51.028;13.716;2022-08-19T10:56:28;26.90;62.70
47773;DHT22;33534;51.028;13.716;2022-08-19T10:59:13;27.30;61.90
47773;DHT22;33534;51.028;13.716;2022-08-19T11:01:41;27.70;60.50
47773;DHT22;33534;51.028;13.716;2022-08-19T11:04:07;27.70;60.40
47773;DHT22;33534;51.028;13.716;2022-08-19T11:06:35;28.00;59.60
47773;DHT22;33534;51.028;13.716;2022-08-19T11:09:02;27.80;59.90
47773;DHT22;33534;51.028;13.716;2022-08-19T11:11:28;27.60;60.10
47773;DHT22;33534;51.028;13.716;2022-08-19T11:13:54;27.30;61.10
47773;DHT22;33534;51.028;13.716;2022-08-19T11:16:23;26.90;61.50
47773;DHT22;33534;51.028;13.716;2022-08-19T11:18:54;26.70;61.90
47773;DHT22;33534;51.028;13.716;2022-08-19T11:23:51;26.90;61.80
47773;DHT22;33534;51.028;13.716;2022-08-19T11:26:19;26.90;62.00
47773;DHT22;33534;51.028;13.716;2022-08-19T11:28:46;26.90;61.60
47773;DHT22;33534;51.028;13.716;2022-08-19T11:31:17;26.40;63.20
47773;DHT22;33534;51.028;13.716;2022-08-19T11:33:44;26.10;64.40
47773;DHT22;33534;51.028;13.716;2022-08-19T11:36:10;26.00;65.00
47773;DHT22;33534;51.028;13.716;2022-08-19T11:38:37;26.00;65.30
47773;DHT22;33534;51.028;13.716;2022-08-19T11:41:06;26.00;65.10
47773;DHT22;33534;51.028;13.716;2022-08-19T11:43:33;26.00;65.30
47773;DHT22;33534;51.028;13.716;2022-08-19T11:45:59;26.00;65.50
47773;DHT22;33534;51.028;13.716;2022-08-19T11:48:25;26.10;65.10
47773;DHT22;33534;51.028;13.716;2022-08-19T11:50:53;26.10;64.70
47773;DHT22;33534;51.028;13.716;2022-08-19T11:53:20;26.20;64.20
47773;DHT22;33534;51.028;13.716;2022-08-19T11:55:47;26.20;64.40
47773;DHT22;33534;51.028;13.716;2022-08-19T11:58:15;26.10;64.70
47773;DHT22;33534;51.028;13.716;2022-08-19T12:00:41;26.00;65.40
47773;DHT22;33534;51.028;13.716;2022-08-19T12:03:07;25.70;66.20
47773;DHT22;33534;51.028;13.716;2022-08-19T12:05:36;25.50;66.60
47773;DHT22;33534;51.028;13.716;2022-08-19T12:08:02;25.40;67.20
47773;DHT22;33534;51.028;13.716;2022-08-19T12:10:27;25.40;67.30
47773;DHT22;33534;51.028;13.716;2022-08-19T12:12:53;25.50;67.10
47773;DHT22;33534;51.028;13.716;2022-08-19T12:15:18;25.40;67.10
47773;DHT22;33534;51.028;13.716;2022-08-19T12:17:44;25.40;67.50
47773;DHT22;33534;51.028;13.716;2022-08-19T12:20:11;25.20;67.40
47773;DHT22;33534;51.028;13.716;2022-08-19T12:22:38;25.10;67.70
47773;DHT22;33534;51.028;13.716;2022-08-19T12:25:07;25.10;67.70
47773;DHT22;33534;51.028;13.716;2022-08-19T12:27:34;25.00;68.10
47773;DHT22;33534;51.028;13.716;2022-08-19T12:30:02;25.10;68.10
47773;DHT22;33534;51.028;13.716;2022-08-19T12:32:28;25.20;67.90
47773;DHT22;33534;51.028;13.716;2022-08-19T12:34:54;25.40;67.40
47773;DHT22;33534;51.028;13.716;2022-08-19T12:37:20;25.50;67.10
47773;DHT22;33534;51.028;13.716;2022-08-19T12:39:45;25.80;66.30
47773;DHT22;33534;51.028;13.716;2022-08-19T12:42:13;26.00;65.50
47773;DHT22;33534;51.028;13.716;2022-08-19T12:44:42;26.00;65.40
47773;DHT22;33534;51.028;13.716;2022-08-19T12:47:10;25.80;65.60
47773;DHT22;33534;51.028;13.716;2022-08-19T12:49:37;25.70;65.60
47773;DHT22;33534;51.028;13.716;2022-08-19T12:52:08;25.50;66.20
47773;DHT22;33534;51.028;13.716;2022-08-19T12:54:36;25.70;65.60
47773;DHT22;33534;51.028;13.716;2022-08-19T12:57:10;25.80;65.30
47773;DHT22;33534;51.028;13.716;2022-08-19T12:59:37;25.70;65.70
47773;DHT22;33534;51.028;13.716;2022-08-19T13:02:04;25.70;65.60
47773;DHT22;33534;51.028;13.716;2022-08-19T13:04:32;25.60;65.70
47773;DHT22;33534;51.028;13.716;2022-08-19T13:07:00;25.40;66.70
47773;DHT22;33534;51.028;13.716;2022-08-19T13:09:26;25.10;67.60
47773;DHT22;33534;51.028;13.716;2022-08-19T13:11:51;25.00;67.40
47773;DHT22;33534;51.028;13.716;2022-08-19T13:14:17;25.10;67.50
47773;DHT22;33534;51.028;13.716;2022-08-19T13:16:44;25.40;66.70
47773;DHT22;33534;51.028;13.716;2022-08-19T13:19:09;25.70;65.80
47773;DHT22;33534;51.028;13.716;2022-08-19T13:21:36;25.70;66.00
47773;DHT22;33534;51.028;13.716;2022-08-19T13:24:02;25.70;65.40
47773;DHT22;33534;51.028;13.716;2022-08-19T13:26:27;25.60;65.70
47773;DHT22;33534;51.028;13.716;2022-08-19T13:28:53;25.50;66.00
47773;DHT22;33534;51.028;13.716;2022-08-19T13:31:40;25.30;66.80
47773;DHT22;33534;51.028;13.716;2022-08-19T13:34:34;25.10;67.50
47773;DHT22;33534;51.028;13.716;2022-08-19T13:37:01;24.90;67.80
47773;DHT22;33534;51.028;13.716;2022-08-19T13:39:29;24.80;68.30
47773;DHT22;33534;51.028;13.716;2022-08-19T13:41:54;24.90;68.30
47773;DHT22;33534;51.028;13.716;2022-08-19T13:44:21;24.90;68.20
47773;DHT22;33534;51.028;13.716;2022-08-19T13:46:48;24.80;68.60
47773;DHT22;33534;51.028;13.716;2022-08-19T13:49:15;24.70;69.30
47773;DHT22;33534;51.028;13.716;2022-08-19T13:51:42;24.40;70.50
47773;DHT22;33534;51.028;13.716;2022-08-19T13:54:08;24.00;71.80
47773;DHT22;33534;51.028;13.716;2022-08-19T13:56:35;24.00;72.10
47773;DHT22;33534;51.028;13.716;2022-08-19T13:59:04;24.00;72.10
47773;DHT22;33534;51.028;13.716;2022-08-19T14:01:30;23.90;72.20
47773;DHT22;33534;51.028;13.716;2022-08-19T14:03:56;23.80;72.90
47773;DHT22;33534;51.028;13.716;2022-08-19T14:06:22;23.90;72.70
47773;DHT22;33534;51.028;13.716;2022-08-19T14:08:48;23.90;72.50
47773;DHT22;33534;51.028;13.716;2022-08-19T14:11:14;24.00;72.40
47773;DHT22;33534;51.028;13.716;2022-08-19T14:13:40;24.00;72.10
47773;DHT22;33534;51.028;13.716;2022-08-19T14:16:10;24.10;71.80
47773;DHT22;33534;51.028;13.716;2022-08-19T14:18:36;24.20;71.70
47773;DHT22;33534;51.028;13.716;2022-08-19T14:21:03;24.20;71.90
47773;DHT22;33534;51.028;13.716;2022-08-19T14:23:30;24.20;71.70
47773;DHT22;33534;51.028;13.716;2022-08-19T14:26:04;24.30;71.50
47773;DHT22;33534;51.028;13.716;2022-08-19T14:28:30;24.30;71.20
47773;DHT22;33534;51.028;13.716;2022-08-19T14:30:56;24.20;70.80
47773;DHT22;33534;51.028;13.716;2022-08-19T14:33:21;24.10;71.20
47773;DHT22;33534;51.028;13.716;2022-08-19T14:35:47;24.00;71.40
47773;DHT22;33534;51.028;13.716;2022-08-19T14:38:17;24.00;71.60
47773;DHT22;33534;51.028;13.716;2022-08-19T14:40:44;24.00;71.50
47773;DHT22;33534;51.028;13.716;2022-08-19T14:43:10;24.00;71.50
47773;DHT22;33534;51.028;13.716;2022-08-19T14:45:37;24.00;71.60
47773;DHT22;33534;51.028;13.716;2022-08-19T14:48:07;23.90;71.70
47773;DHT22;33534;51.028;13.716;2022-08-19T14:50:34;24.00;71.80
47773;DHT22;33534;51.028;13.716;2022-08-19T14:53:02;23.90;71.80
47773;DHT22;33534;51.028;13.716;2022-08-19T14:55:28;23.90;72.00
47773;DHT22;33534;51.028;13.716;2022-08-19T14:57:54;23.70;72.50
47773;DHT22;33534;51.028;13.716;2022-08-19T15:00:23;23.70;72.70
47773;DHT22;33534;51.028;13.716;2022-08-19T15:02:49;23.60;73.10
47773;DHT22;33534;51.028;13.716;2022-08-19T15:05:15;23.50;73.50
47773;DHT22;33534;51.028;13.716;2022-08-19T15:07:42;23.50;73.50
47773;DHT22;33534;51.028;13.716;2022-08-19T15:10:09;23.50;73.30
47773;DHT22;33534;51.028;13.716;2022-08-19T15:12:36;23.60;72.90
47773;DHT22;33534;51.028;13.716;2022-08-19T15:15:04;23.80;72.50
47773;DHT22;33534;51.028;13.716;2022-08-19T15:17:30;23.80;71.90
47773;DHT22;33534;51.028;13.716;2022-08-19T15:19:55;23.90;71.80
47773;DHT22;33534;51.028;13.716;2022-08-19T15:22:21;24.00;71.40
47773;DHT22;33534;51.028;13.716;2022-08-19T15:24:47;24.00;71.40
47773;DHT22;33534;51.028;13.716;2022-08-19T15:27:13;23.90;71.80
47773;DHT22;33534;51.028;13.716;2022-08-19T15:29:41;24.00;71.70
47773;DHT22;33534;51.028;13.716;2022-08-19T15:32:07;23.90;71.80
47773;DHT22;33534;51.028;13.716;2022-08-19T15:34:34;23.90;71.70
47773;DHT22;33534;51.028;13.716;2022-08-19T15:37:00;23.80;71.90
47773;DHT22;33534;51.028;13.716;2022-08-19T15:39:27;23.70;71.90
47773;DHT22;33534;51.028;13.716;2022-08-19T15:41:52;23.70;72.00
47773;DHT22;33534;51.028;13.716;2022-08-19T15:44:19;23.60;72.20
47773;DHT22;33534;51.028;13.716;2022-08-19T15:46:47;23.60;72.20
47773;DHT22;33534;51.028;13.716;2022-08-19T15:49:16;23.50;72.30
47773;DHT22;33534;51.028;13.716;2022-08-19T15:51:43;23.70;71.90
47773;DHT22;33534;51.028;13.716;2022-08-19T15:54:12;23.80;71.60
47773;DHT22;33534;51.028;13.716;2022-08-19T15:56:38;23.80;71.30
47773;DHT22;33534;51.028;13.716;2022-08-19T15:59:22;23.90;71.10